createdAt,value
2018-09-03T00:01:16.047Z,102206.42
2018-09-03T00:04:20.349Z,102198.10
2018-09-03T00:07:24.695Z,102197.25
2018-09-03T00:10:29.315Z,102194.07
2018-09-03T00:13:33.909Z,102187.55
2018-09-03T00:16:38.579Z,102185.34
2018-09-03T00:19:43.781Z,102183.97
2018-09-03T00:22:48.234Z,102180.81
2018-09-03T00:25:52.756Z,102177.28
2018-09-03T00:28:57.231Z,102175.00
2018-09-03T00:32:07.208Z,102175.44
2018-09-03T00:35:16.851Z,102171.96
2018-09-03T00:38:26.388Z,102173.66
2018-09-03T00:41:36.001Z,102166.67
2018-09-03T00:44:45.591Z,102158.87
2018-09-03T00:47:50.176Z,102161.44
2018-09-03T00:50:55.211Z,102168.40
2018-09-03T00:53:59.843Z,102162.82
2018-09-03T00:57:04.253Z,102166.27
2018-09-03T01:00:09.033Z,102164.13
2018-09-03T01:03:13.554Z,102154.52
2018-09-03T01:06:18.289Z,102157.16
2018-09-03T01:09:22.919Z,102156.71
2018-09-03T01:12:27.558Z,102148.41
2018-09-03T01:15:31.917Z,102151.48
2018-09-03T01:18:44.830Z,102143.13
2018-09-03T01:21:49.501Z,102137.92
2018-09-03T01:24:53.909Z,102146.27
2018-09-03T01:27:58.293Z,102148.00
2018-09-03T01:31:02.750Z,102141.45
2018-09-03T01:34:07.306Z,102141.45
2018-09-03T01:37:11.601Z,102140.09
2018-09-03T01:40:15.886Z,102138.77
2018-09-03T01:43:20.332Z,102130.48
2018-09-03T01:46:24.699Z,102129.18
2018-09-03T01:49:29.155Z,102121.31
2018-09-03T01:52:33.524Z,102121.81
2018-09-03T01:55:38.984Z,102122.22
2018-09-03T01:58:43.726Z,102118.71
2018-09-03T02:01:48.096Z,102114.33
2018-09-03T02:04:52.832Z,102102.94
2018-09-03T02:07:57.246Z,102103.71
2018-09-03T02:11:01.654Z,102107.63
2018-09-03T02:14:06.347Z,102100.65
2018-09-03T02:17:11.807Z,102092.21
2018-09-03T02:20:16.149Z,102092.19
2018-09-03T02:23:20.785Z,102092.95
2018-09-03T02:26:25.316Z,102092.08
2018-09-03T02:29:29.628Z,102092.57
2018-09-03T02:32:33.925Z,102088.63
2018-09-03T02:35:38.268Z,102085.08
2018-09-03T02:38:42.565Z,102082.04
2018-09-03T02:41:46.879Z,102075.90
2018-09-03T02:44:51.243Z,102075.02
2018-09-03T02:47:55.640Z,102074.17
2018-09-03T02:51:00.067Z,102067.22
2018-09-03T02:54:04.461Z,102076.06
2018-09-03T02:57:09.050Z,102075.65
2018-09-03T03:00:13.592Z,102074.17
2018-09-03T03:03:18.298Z,102071.59
2018-09-03T03:06:22.667Z,102059.77
2018-09-03T03:09:27.218Z,102060.66
2018-09-03T03:12:31.598Z,102056.28
2018-09-03T03:15:35.935Z,102061.55
2018-09-03T03:18:40.382Z,102058.47
2018-09-03T03:21:44.923Z,102052.44
2018-09-03T03:24:49.697Z,102054.66
2018-09-03T03:27:54.188Z,102055.14
2018-09-03T03:30:58.650Z,102052.03
2018-09-03T03:34:03.081Z,102046.75
2018-09-03T03:37:07.696Z,102053.66
2018-09-03T03:40:12.111Z,102043.97
2018-09-03T03:43:16.803Z,102048.38
2018-09-03T03:46:21.194Z,102049.66
2018-09-03T03:49:25.501Z,102050.95
2018-09-03T03:52:29.933Z,102048.71
2018-09-03T03:55:34.301Z,102053.14
2018-09-03T03:58:38.878Z,102057.94
2018-09-03T04:01:43.278Z,102056.63
2018-09-03T04:04:47.535Z,102049.59
2018-09-03T04:07:52.020Z,102050.50
2018-09-03T04:10:56.333Z,102050.44
2018-09-03T04:14:00.643Z,102046.52
2018-09-03T04:17:05.110Z,102046.03
2018-09-03T04:20:09.420Z,102049.12
2018-09-03T04:23:13.760Z,102044.34
2018-09-03T04:26:17.988Z,102043.87
2018-09-03T04:29:22.280Z,102042.14
2018-09-03T04:32:26.591Z,102039.52
2018-09-03T04:35:30.985Z,102040.38
2018-09-03T04:38:35.304Z,102042.14
2018-09-03T04:41:39.581Z,102040.80
2018-09-03T04:44:43.941Z,102037.77
2018-09-03T04:47:48.226Z,102041.22
2018-09-03T04:50:52.687Z,102036.88
2018-09-03T04:53:57.097Z,102035.95
2018-09-03T04:57:01.616Z,102034.72
2018-09-03T05:00:06.477Z,102039.53
2018-09-03T05:03:10.810Z,102041.28
2018-09-03T05:06:15.193Z,102039.98
2018-09-03T05:09:19.524Z,102036.01
2018-09-03T05:12:23.783Z,102044.77
2018-09-03T05:15:28.171Z,102038.22
2018-09-03T05:18:32.476Z,102036.49
2018-09-03T05:21:36.828Z,102038.27
2018-09-03T05:24:41.160Z,102036.94
2018-09-03T05:27:45.585Z,102043.48
2018-09-03T05:30:49.938Z,102040.83
2018-09-03T05:33:54.275Z,102043.87
2018-09-03T05:36:58.547Z,102041.23
2018-09-03T05:40:02.947Z,102040.83
2018-09-03T05:43:07.475Z,102043.92
2018-09-03T05:46:11.691Z,102043.95
2018-09-03T05:49:15.999Z,102036.08
2018-09-03T05:52:20.437Z,102028.16
2018-09-03T05:55:24.951Z,102023.81
2018-09-03T05:58:29.376Z,102027.37
2018-09-03T06:01:33.801Z,102026.48
2018-09-03T06:04:39.176Z,102033.47
2018-09-03T06:07:43.566Z,102027.88
2018-09-03T06:10:47.993Z,102036.66
2018-09-03T06:13:52.393Z,102042.39
2018-09-03T06:16:56.784Z,102035.37
2018-09-03T06:20:01.134Z,102035.88
2018-09-03T06:23:05.490Z,102036.28
2018-09-03T06:26:09.876Z,102036.73
2018-09-03T06:29:14.197Z,102031.03
2018-09-03T06:32:18.530Z,102031.95
2018-09-03T06:35:22.835Z,102024.94
2018-09-03T06:38:27.301Z,102029.38
2018-09-03T06:41:31.647Z,102024.58
2018-09-03T06:44:35.965Z,102026.81
2018-09-03T06:47:40.275Z,102022.92
2018-09-03T06:50:44.603Z,102026.89
2018-09-03T06:53:48.932Z,102022.55
2018-09-03T06:56:53.277Z,102028.71
2018-09-03T06:59:57.596Z,102019.91
2018-09-03T07:03:02.020Z,102023.48
2018-09-03T07:06:06.653Z,102020.86
2018-09-03T07:09:11.213Z,102013.86
2018-09-03T07:12:15.487Z,102017.84
2018-09-03T07:15:19.837Z,102013.02
2018-09-03T07:18:24.253Z,102006.48
2018-09-03T07:21:28.573Z,102005.17
2018-09-03T07:24:33.286Z,101998.19
2018-09-03T07:27:37.864Z,101995.99
2018-09-03T07:30:42.312Z,101992.05
2018-09-03T07:33:46.777Z,101994.23
2018-09-03T07:36:51.057Z,102000.81
2018-09-03T07:39:55.612Z,102004.30
2018-09-03T07:43:00.021Z,102011.80
2018-09-03T07:46:04.669Z,101997.81
2018-09-03T07:49:09.205Z,101997.37
2018-09-03T07:52:13.683Z,101994.77
2018-09-03T07:55:18.008Z,101983.38
2018-09-03T07:58:22.422Z,101990.85
2018-09-03T08:01:26.950Z,101991.27
2018-09-03T08:04:31.616Z,101978.54
2018-09-03T08:07:36.070Z,101975.93
2018-09-03T08:10:40.421Z,101975.93
2018-09-03T08:13:44.917Z,101972.42
2018-09-03T08:16:49.653Z,101972.89
2018-09-03T08:19:54.121Z,101968.97
2018-09-03T08:22:58.532Z,101977.34
2018-09-03T08:26:03.154Z,101987.03
2018-09-03T08:29:07.531Z,101983.08
2018-09-03T08:32:12.459Z,101981.31
2018-09-03T08:35:16.755Z,101983.50
2018-09-03T08:38:21.082Z,101988.34
2018-09-03T08:41:25.394Z,101987.89
2018-09-03T08:44:29.903Z,101993.16
2018-09-03T08:47:34.248Z,101991.84
2018-09-03T08:50:38.986Z,101983.52
2018-09-03T08:53:43.348Z,101984.38
2018-09-03T08:56:47.805Z,101983.05
2018-09-03T08:59:52.277Z,101980.44
2018-09-03T09:02:56.683Z,101984.38
2018-09-03T09:06:01.008Z,101986.58
2018-09-03T09:09:06.717Z,101984.84
2018-09-03T09:12:11.404Z,101986.58
2018-09-03T09:15:15.749Z,101987.44
2018-09-03T09:18:20.719Z,101983.52
2018-09-03T09:21:26.523Z,101988.77
2018-09-03T09:24:30.915Z,101983.97
2018-09-03T09:27:35.378Z,101980.00
2018-09-03T09:30:39.747Z,101983.53
2018-09-03T09:33:44.101Z,101979.14
2018-09-03T09:36:48.461Z,101965.95
2018-09-03T09:39:52.752Z,101967.72
2018-09-03T09:42:58.506Z,101959.83
2018-09-03T09:46:03.280Z,101963.77
2018-09-03T09:49:07.877Z,101962.47
2018-09-03T09:52:12.278Z,101968.18
2018-09-03T09:55:16.558Z,101955.86
2018-09-03T09:58:20.859Z,101956.28
2018-09-03T10:01:30.378Z,101958.90
2018-09-03T10:04:34.789Z,101958.92
2018-09-03T10:07:39.845Z,101961.11
2018-09-03T10:10:45.095Z,101961.97
2018-09-03T10:14:02.490Z,101955.42
2018-09-03T10:17:07.218Z,101954.56
2018-09-03T10:20:11.513Z,101947.50
2018-09-03T10:23:15.999Z,101944.44
2018-09-03T10:26:20.415Z,101944.86
2018-09-03T10:29:24.730Z,101944.43
2018-09-03T10:32:30.324Z,101936.06
2018-09-03T10:35:34.596Z,101932.98
2018-09-03T10:38:39.014Z,101936.05
2018-09-03T10:41:43.608Z,101929.91
2018-09-03T10:44:48.736Z,101921.97
2018-09-03T10:47:53.217Z,101921.50
2018-09-03T10:50:57.512Z,101910.05
2018-09-03T10:54:01.811Z,101899.94
2018-09-03T10:57:06.407Z,101899.94
2018-09-03T11:00:10.842Z,101896.41
2018-09-03T11:03:15.271Z,101892.89
2018-09-03T11:06:19.600Z,101890.67
2018-09-03T11:09:24.053Z,101887.56
2018-09-03T11:12:28.355Z,101893.73
2018-09-03T11:15:32.778Z,101895.06
2018-09-03T11:18:37.235Z,101896.78
2018-09-03T11:21:42.150Z,101885.30
2018-09-03T11:24:46.543Z,101880.45
2018-09-03T11:27:51.767Z,101886.59
2018-09-03T11:30:56.159Z,101883.09
2018-09-03T11:34:00.456Z,101875.95
2018-09-03T11:37:04.875Z,101875.44
2018-09-03T11:40:09.220Z,101876.27
2018-09-03T11:43:13.536Z,101878.40
2018-09-03T11:46:17.886Z,101874.73
2018-09-03T11:49:22.741Z,101873.77
2018-09-03T11:52:27.949Z,101864.94
2018-09-03T11:55:32.702Z,101871.96
2018-09-03T11:58:37.295Z,101865.80
2018-09-03T12:01:41.621Z,101872.31
2018-09-03T12:04:45.954Z,101870.95
2018-09-03T12:07:52.951Z,101868.12
2018-09-03T12:10:57.293Z,101860.59
2018-09-03T12:14:06.081Z,101862.98
2018-09-03T12:17:10.145Z,101857.85
2018-09-03T12:20:14.727Z,101858.06
2018-09-03T12:23:19.186Z,101865.80
2018-09-03T12:26:23.553Z,101867.94
2018-09-03T12:29:27.824Z,101865.34
2018-09-03T12:32:32.396Z,101857.05
2018-09-03T12:35:36.807Z,101857.01
2018-09-03T12:38:42.076Z,101854.91
2018-09-03T12:41:48.003Z,101847.05
2018-09-03T12:44:53.693Z,101841.71
2018-09-03T12:47:59.177Z,101846.85
2018-09-03T12:51:04.925Z,101854.18
2018-09-03T12:54:09.889Z,101841.31
2018-09-03T12:57:14.631Z,101839.87
2018-09-03T13:00:22.155Z,101845.98
2018-09-03T13:03:26.950Z,101851.75
2018-09-03T13:06:33.047Z,101853.81
2018-09-03T13:09:39.744Z,101852.09
2018-09-03T13:12:45.318Z,101845.00
2018-09-03T13:15:58.826Z,101839.14
2018-09-03T13:19:05.987Z,101836.94
2018-09-03T13:22:10.401Z,101836.03
2018-09-03T13:25:17.542Z,101839.66
2018-09-03T13:28:21.861Z,101832.67
2018-09-03T13:31:26.189Z,101827.84
2018-09-03T13:34:30.680Z,101829.16
2018-09-03T13:37:35.362Z,101827.33
2018-09-03T13:40:40.233Z,101829.06
2018-09-03T13:43:44.697Z,101822.36
2018-09-03T13:46:49.026Z,101822.89
2018-09-03T13:49:54.395Z,101821.92
2018-09-03T13:52:59.186Z,101809.48
2018-09-03T13:56:03.629Z,101811.83
2018-09-03T13:59:08.502Z,101807.92
2018-09-03T14:02:15.353Z,101805.20
2018-09-03T14:05:20.517Z,101814.13
2018-09-03T14:08:24.891Z,101814.59
2018-09-03T14:11:30.091Z,101810.56
2018-09-03T14:14:35.676Z,101805.62
2018-09-03T14:17:39.987Z,101810.17
2018-09-03T14:20:45.988Z,101794.33
2018-09-03T14:23:50.429Z,101798.66
2018-09-03T14:26:55.606Z,101795.77
2018-09-03T14:30:00.165Z,101797.89
2018-09-03T14:33:04.453Z,101801.86
2018-09-03T14:36:09.048Z,101791.50
2018-09-03T14:39:13.483Z,101797.61
2018-09-03T14:42:19.285Z,101792.70
2018-09-03T14:45:24.960Z,101781.25
2018-09-03T14:48:29.256Z,101779.86
2018-09-03T14:51:33.810Z,101777.75
2018-09-03T14:54:39.217Z,101779.58
2018-09-03T14:57:43.606Z,101772.05
2018-09-03T15:00:47.956Z,101774.27
2018-09-03T15:03:52.759Z,101782.69
2018-09-03T15:06:57.111Z,101776.19
2018-09-03T15:10:01.480Z,101782.36
2018-09-03T15:13:06.057Z,101787.81
2018-09-03T15:16:10.472Z,101780.80
2018-09-03T15:19:14.776Z,101780.34
2018-09-03T15:22:20.309Z,101777.22
2018-09-03T15:25:24.661Z,101776.36
2018-09-03T15:28:29.074Z,101774.45
2018-09-03T15:31:33.516Z,101776.70
2018-09-03T15:34:37.923Z,101771.27
2018-09-03T15:37:43.513Z,101772.30
2018-09-03T15:40:49.676Z,101766.51
2018-09-03T15:43:54.728Z,101770.95
2018-09-03T15:46:59.386Z,101764.66
2018-09-03T15:50:04.381Z,101762.61
2018-09-03T15:53:08.706Z,101760.67
2018-09-03T15:56:13.022Z,101759.28
2018-09-03T15:59:17.418Z,101761.94
2018-09-03T16:02:21.746Z,101764.06
2018-09-03T16:05:26.878Z,101766.06
2018-09-03T16:08:31.176Z,101759.39
2018-09-03T16:11:35.519Z,101749.47
2018-09-03T16:14:41.254Z,101756.52
2018-09-03T16:17:46.012Z,101751.94
2018-09-03T16:20:50.823Z,101753.50
2018-09-03T16:23:55.476Z,101751.89
2018-09-03T16:27:00.293Z,101756.82
2018-09-03T16:30:05.020Z,101748.56
2018-09-03T16:33:10.091Z,101748.52
2018-09-03T16:36:15.133Z,101744.14
2018-09-03T16:39:21.116Z,101739.35
2018-09-03T16:42:25.891Z,101737.63
2018-09-03T16:45:30.706Z,101745.67
2018-09-03T16:48:35.384Z,101741.78
2018-09-03T16:51:40.937Z,101738.37
2018-09-03T16:54:45.416Z,101738.03
2018-09-03T16:57:50.660Z,101735.01
2018-09-03T17:00:56.070Z,101736.81
2018-09-03T17:04:00.884Z,101741.06
2018-09-03T17:07:05.362Z,101742.90
2018-09-03T17:10:10.571Z,101746.92
2018-09-03T17:13:14.979Z,101743.12
2018-09-03T17:16:19.931Z,101747.58
2018-09-03T17:19:25.147Z,101743.19
2018-09-03T17:22:29.629Z,101733.16
2018-09-03T17:25:34.008Z,101737.64
2018-09-03T17:28:38.421Z,101745.15
2018-09-03T17:31:43.995Z,101746.94
2018-09-03T17:34:48.457Z,101745.66
2018-09-03T17:37:54.417Z,101742.61
2018-09-03T17:40:59.605Z,101743.53
2018-09-03T17:44:04.831Z,101742.69
2018-09-03T17:47:10.084Z,101744.02
2018-09-03T17:50:15.851Z,101739.65
2018-09-03T17:53:20.276Z,101733.50
2018-09-03T17:56:24.868Z,101738.37
2018-09-03T17:59:29.789Z,101745.86
2018-09-03T18:02:35.020Z,101751.55
2018-09-03T18:05:39.510Z,101755.52
2018-09-03T18:08:44.573Z,101752.03
2018-09-03T18:11:48.935Z,101755.11
2018-09-03T18:14:53.926Z,101756.89
2018-09-03T18:17:58.707Z,101761.27
2018-09-03T18:21:02.992Z,101758.20
2018-09-03T18:24:07.471Z,101764.80
2018-09-03T18:27:11.897Z,101762.17
2018-09-03T18:30:19.216Z,101761.72
2018-09-03T18:33:24.310Z,101761.28
2018-09-03T18:36:28.761Z,101764.78
2018-09-03T18:39:33.704Z,101764.80
2018-09-03T18:42:38.358Z,101760.41
2018-09-03T18:45:42.770Z,101763.88
2018-09-03T18:48:47.474Z,101768.25
2018-09-03T18:51:52.317Z,101765.20
2018-09-03T18:54:56.781Z,101762.56
2018-09-03T18:58:01.399Z,101759.49
2018-09-03T19:01:06.945Z,101758.61
2018-09-03T19:04:12.154Z,101756.42
2018-09-03T19:07:17.906Z,101757.71
2018-09-03T19:10:27.916Z,101759.48
2018-09-03T19:13:33.022Z,101763.43
2018-09-03T19:16:37.519Z,101766.48
2018-09-03T19:19:43.253Z,101770.44
2018-09-03T19:22:49.021Z,101769.11
2018-09-03T19:25:54.027Z,101772.61
2018-09-03T19:28:58.385Z,101776.55
2018-09-03T19:32:03.659Z,101773.93
2018-09-03T19:35:08.463Z,101770.41
2018-09-03T19:38:12.957Z,101762.52
2018-09-03T19:41:18.063Z,101765.11
2018-09-03T19:44:22.989Z,101767.73
2018-09-03T19:47:27.983Z,101758.95
2018-09-03T19:50:32.899Z,101762.44
2018-09-03T19:53:37.301Z,101762.03
2018-09-03T19:56:46.307Z,101763.77
2018-09-03T19:59:51.370Z,101756.75
2018-09-03T20:02:57.272Z,101761.12
2018-09-03T20:06:02.652Z,101759.80
2018-09-03T20:09:07.429Z,101774.29
2018-09-03T20:12:13.533Z,101765.91
2018-09-03T20:15:23.233Z,101761.96
2018-09-03T20:18:27.677Z,101762.83
2018-09-03T20:21:33.626Z,101764.58
2018-09-03T20:24:38.015Z,101766.32
2018-09-03T20:27:43.084Z,101767.21
2018-09-03T20:30:47.829Z,101768.52
2018-09-03T20:33:53.083Z,101772.46
2018-09-03T20:36:57.664Z,101775.08
2018-09-03T20:40:03.461Z,101775.95
2018-09-03T20:43:07.929Z,101770.72
2018-09-03T20:46:15.584Z,101764.58
2018-09-03T20:49:20.021Z,101772.00
2018-09-03T20:52:24.528Z,101775.09
2018-09-03T20:55:29.786Z,101767.21
2018-09-03T20:58:34.913Z,101759.75
2018-09-03T21:01:39.656Z,101767.63
2018-09-03T21:04:44.057Z,101768.52
2018-09-03T21:07:48.416Z,101765.02
2018-09-03T21:10:53.814Z,101769.42
2018-09-03T21:13:59.714Z,101768.95
2018-09-03T21:17:04.109Z,101771.10
2018-09-03T21:20:09.125Z,101768.41
2018-09-03T21:23:14.354Z,101772.44
2018-09-03T21:26:20.747Z,101771.10
2018-09-03T21:29:26.253Z,101765.33
2018-09-03T21:32:31.436Z,101775.41
2018-09-03T21:35:36.800Z,101769.27
2018-09-03T21:38:42.172Z,101773.66
2018-09-03T21:41:48.064Z,101767.09
2018-09-03T21:44:53.790Z,101765.33
2018-09-03T21:47:58.979Z,101769.27
2018-09-03T21:51:03.689Z,101767.95
2018-09-03T21:54:08.945Z,101760.96
2018-09-03T21:57:13.221Z,101761.80
2018-09-03T22:00:18.608Z,101756.55
2018-09-03T22:03:24.370Z,101749.13
2018-09-03T22:06:31.388Z,101759.15
2018-09-03T22:09:36.478Z,101754.77
2018-09-03T22:12:41.228Z,101756.56
2018-09-03T22:15:47.601Z,101757.87
2018-09-03T22:18:52.775Z,101756.58
2018-09-03T22:22:00.098Z,101753.13
2018-09-03T22:25:05.011Z,101757.55
2018-09-03T22:28:10.604Z,101754.05
2018-09-03T22:31:15.642Z,101759.75
2018-09-03T22:34:21.656Z,101760.20
2018-09-03T22:37:26.964Z,101761.06
2018-09-03T22:40:32.296Z,101761.51
2018-09-03T22:43:37.964Z,101764.58
2018-09-03T22:46:43.470Z,101768.55
2018-09-03T22:49:48.882Z,101762.83
2018-09-03T22:52:54.351Z,101758.86
2018-09-03T22:55:59.891Z,101764.53
2018-09-03T22:59:05.029Z,101761.47
2018-09-03T23:02:09.425Z,101765.33
2018-09-03T23:05:13.740Z,101761.79
2018-09-03T23:08:20.764Z,101759.98
2018-09-03T23:11:25.688Z,101759.95
2018-09-03T23:14:30.980Z,101760.81
2018-09-03T23:17:36.094Z,101760.82
2018-09-03T23:20:41.046Z,101759.53
2018-09-03T23:23:45.652Z,101756.45
2018-09-03T23:26:50.404Z,101749.89
2018-09-03T23:29:54.832Z,101740.23
2018-09-03T23:32:59.813Z,101737.16
2018-09-03T23:36:04.308Z,101736.29
2018-09-03T23:39:09.879Z,101739.80
2018-09-03T23:42:15.121Z,101731.09
2018-09-03T23:45:19.539Z,101726.72
2018-09-03T23:48:24.982Z,101724.13
2018-09-03T23:51:30.105Z,101717.98
2018-09-03T23:54:34.520Z,101713.17
2018-09-03T23:57:38.820Z,101711.44
